Time;durP1;ratioP1;P1;durP2;ratioP2;P2;SDS_P1;SDS_P2;PMS_P1;PMS_P2;Temp;Humidity;BMP_temperature;BMP_pressure;BME280_temperature;BME280_humidity;BME280_pressure;Samples;Min_cycle;Max_cycle;Signal;HPM_P1;HPM_P2
2021/12/27 00:00:00;;;;;;;131.10;39.40;;;;;;;-17.31;78.63;101015.87;1772967;80;20924;-75
2021/12/27 00:02:27;;;;;;;116.30;36.80;;;;;;;-17.28;78.71;101017.41;1788931;78;20893;-75
2021/12/27 00:04:53;;;;;;;100.80;31.53;;;;;;;-17.24;78.75;101013.28;1776661;78;20901;-75
2021/12/27 00:07:19;;;;;;;118.73;37.73;;;;;;;-17.27;78.55;101010.51;1799906;78;20916;-75
2021/12/27 00:09:45;;;;;;;117.57;37.43;;;;;;;-17.32;78.51;101014.99;1774590;80;26326;-75
2021/12/27 00:12:11;;;;;;;99.33;30.63;;;;;;;-17.34;78.60;101019.27;1776444;80;20855;-75
2021/12/27 00:14:37;;;;;;;115.43;35.63;;;;;;;-17.32;78.67;101016.59;1773689;80;20902;-76
2021/12/27 00:17:03;;;;;;;105.43;34.30;;;;;;;-17.32;78.63;101027.34;1742269;79;20966;-77
2021/12/27 00:19:29;;;;;;;110.33;33.47;;;;;;;-17.31;78.64;101029.45;1751470;81;20921;-77
2021/12/27 00:21:55;;;;;;;116.27;33.77;;;;;;;-17.31;78.61;101015.51;1757571;79;26317;-77
2021/12/27 00:24:21;;;;;;;104.07;32.17;;;;;;;-17.28;78.71;101018.64;1756244;80;24945;-77
2021/12/27 00:26:48;;;;;;;110.80;33.43;;;;;;;-17.26;78.69;101019.67;1740008;81;20886;-76
2021/12/27 00:29:15;;;;;;;107.57;32.73;;;;;;;-17.27;78.66;101013.86;1760921;81;20901;-76
2021/12/27 00:31:43;;;;;;;117.43;34.90;;;;;;;-17.30;78.50;101010.20;1768665;79;20913;-76
2021/12/27 00:34:09;;;;;;;116.63;33.87;;;;;;;-17.31;78.53;101007.22;1753836;81;20929;-76
2021/12/27 00:36:35;;;;;;;116.30;35.30;;;;;;;-17.30;78.62;101011.08;1748420;81;20933;-76
2021/12/27 00:39:01;;;;;;;123.20;38.30;;;;;;;-17.28;78.57;101009.63;1735611;79;20866;-77
2021/12/27 00:41:27;;;;;;;112.80;35.30;;;;;;;-17.31;78.47;101005.98;1732689;81;20875;-76
2021/12/27 00:43:53;;;;;;;114.37;36.40;;;;;;;-17.32;78.52;101000.53;1724731;81;21479;-76
2021/12/27 00:46:19;;;;;;;110.63;35.00;;;;;;;-17.36;78.44;101007.13;1706459;82;26858;-76
2021/12/27 00:48:45;;;;;;;99.50;32.43;;;;;;;-17.38;78.45;101012.27;1732734;81;20869;-76
2021/12/27 00:51:11;;;;;;;101.13;31.97;;;;;;;-17.43;78.34;101009.34;1752674;79;20930;-76
2021/12/27 00:53:37;;;;;;;108.83;33.27;;;;;;;-17.45;78.42;100998.44;1738884;81;21851;-76
2021/12/27 00:56:04;;;;;;;108.93;34.17;;;;;;;-17.51;78.28;100998.70;1737956;81;20948;-76
2021/12/27 00:58:30;;;;;;;132.50;40.07;;;;;;;-17.49;78.43;100991.08;1749687;81;20893;-76
2021/12/27 01:00:56;;;;;;;125.07;34.87;;;;;;;-17.51;78.38;100989.17;1745308;79;20866;-76
2021/12/27 01:03:22;;;;;;;121.00;36.13;;;;;;;-17.50;78.47;100983.16;1732278;81;20937;-76
2021/12/27 01:05:48;;;;;;;116.43;33.93;;;;;;;-17.51;78.43;100982.64;1736004;81;26775;-76
2021/12/27 01:08:14;;;;;;;123.63;37.13;;;;;;;-17.54;78.33;100974.05;1730361;81;20945;-75
2021/12/27 01:13:23;;;;;;;121.43;37.53;;;;;;;-17.50;78.50;100968.69;1755087;81;20885;-75
2021/12/27 01:16:02;;;;;;;112.07;34.43;;;;;;;-17.45;78.62;100968.79;1732056;81;20960;-76
2021/12/27 01:18:20;;;;;;;105.90;34.63;;;;;;;-17.43;78.56;100971.92;1755646;79;20932;-76
2021/12/27 01:20:47;;;;;;;115.43;34.57;;;;;;;-17.45;78.46;100972.50;1740136;81;21473;-75
2021/12/27 01:23:13;;;;;;;108.23;32.67;;;;;;;-17.49;78.37;100968.84;1741858;81;20890;-75
2021/12/27 01:25:40;;;;;;;105.87;32.27;;;;;;;-17.52;78.36;100967.66;1753118;81;20915;-75
2021/12/27 01:28:07;;;;;;;119.93;35.13;;;;;;;-17.52;78.41;100965.20;1751595;79;20937;-75
2021/12/27 01:30:37;;;;;;;103.93;32.63;;;;;;;-17.54;78.41;100968.75;1747409;79;20941;-75
2021/12/27 01:33:01;;;;;;;110.87;33.90;;;;;;;-17.54;78.45;100972.45;1751761;81;20925;-75
2021/12/27 01:35:27;;;;;;;108.73;34.43;;;;;;;-17.57;78.33;100973.74;1746760;81;20937;-75
2021/12/27 01:37:54;;;;;;;104.23;32.20;;;;;;;-17.61;78.29;100976.63;1756907;81;20921;-76
2021/12/27 01:40:25;;;;;;;102.60;32.63;;;;;;;-17.63;78.31;100975.23;1787868;79;20902;-76
2021/12/27 01:43:07;;;;;;;97.53;32.10;;;;;;;-17.65;78.28;100977.08;1738510;79;20933;-76
2021/12/27 01:45:42;;;;;;;86.47;29.20;;;;;;;-17.67;78.31;100975.69;1763714;80;20913;-76
2021/12/27 01:48:09;;;;;;;77.40;25.53;;;;;;;-17.69;78.26;100987.40;1740793;81;20869;-75
2021/12/27 01:50:38;;;;;;;98.33;27.80;;;;;;;-17.71;78.25;100981.44;1753130;81;21586;-75
2021/12/27 01:53:06;;;;;;;69.33;25.93;;;;;;;-17.75;78.20;100984.31;1772864;79;20909;-75
2021/12/27 01:55:33;;;;;;;68.33;24.03;;;;;;;-17.75;78.23;100984.31;1756914;79;20922;-75
2021/12/27 01:57:59;;;;;;;84.50;26.90;;;;;;;-17.77;78.29;100989.09;1746999;81;21720;-75
2021/12/27 02:00:26;;;;;;;85.80;27.97;;;;;;;-17.81;78.17;100984.57;1758483;79;20909;-77
2021/12/27 02:02:53;;;;;;;82.80;26.77;;;;;;;-17.84;78.21;100979.33;1759506;81;20885;-76
2021/12/27 02:05:19;;;;;;;94.73;27.93;;;;;;;-17.88;78.07;100978.50;1746075;81;20889;-76
2021/12/27 02:07:45;;;;;;;86.73;27.23;;;;;;;-17.93;78.12;100973.09;1761591;79;21540;-77
2021/12/27 02:10:12;;;;;;;75.43;23.83;;;;;;;-17.94;78.13;100972.58;1732756;81;20982;-77
2021/12/27 02:12:40;;;;;;;96.73;28.00;;;;;;;-17.92;78.28;100970.27;1753777;81;21326;-76
2021/12/27 02:15:09;;;;;;;96.03;30.20;;;;;;;-17.94;78.18;100968.87;1743204;79;20912;-76
2021/12/27 02:17:39;;;;;;;83.93;24.83;;;;;;;-17.92;78.28;100967.44;1732442;81;21369;-76
2021/12/27 02:20:10;;;;;;;83.27;27.50;;;;;;;-17.90;78.25;100966.36;1745842;81;20937;-76
2021/12/27 02:22:40;;;;;;;92.47;27.50;;;;;;;-17.93;78.12;100970.62;1740043;81;20948;-76
2021/12/27 02:25:06;;;;;;;88.50;26.27;;;;;;;-17.92;78.21;100967.44;1755241;79;20940;-76
2021/12/27 02:27:33;;;;;;;75.43;24.50;;;;;;;-17.92;78.20;100962.86;1753726;78;20909;-76
2021/12/27 02:30:01;;;;;;;75.13;25.57;;;;;;;-17.95;78.20;100957.25;1786342;80;20929;-76
2021/12/27 02:32:27;;;;;;;85.07;28.83;;;;;;;-17.96;78.18;100959.21;1751197;80;20915;-76
2021/12/27 02:34:53;;;;;;;77.43;26.80;;;;;;;-17.95;78.17;100956.38;1802926;77;20898;-76
2021/12/27 02:37:19;;;;;;;87.83;27.97;;;;;;;-17.96;78.13;100952.16;1778050;77;26339;-76
2021/12/27 02:39:46;;;;;;;79.67;28.73;;;;;;;-17.93;78.25;100950.01;1778272;77;20878;-76
2021/12/27 02:42:19;;;;;;;93.77;30.40;;;;;;;-17.92;78.26;100938.18;1790704;78;20925;-76
2021/12/27 02:44:46;;;;;;;98.60;31.20;;;;;;;-17.91;78.19;100939.93;1824226;77;20891;-76
2021/12/27 02:47:15;;;;;;;132.73;38.83;;;;;;;-17.91;78.22;100930.92;1839157;77;20851;-76
2021/12/27 02:49:42;;;;;;;107.23;29.90;;;;;;;-17.83;78.38;100929.23;1795967;77;20898;-76
2021/12/27 02:52:09;;;;;;;113.57;31.13;;;;;;;-17.77;78.47;100929.84;1821632;77;21336;-76
2021/12/27 02:54:35;;;;;;;96.60;31.30;;;;;;;-17.75;78.39;100920.98;1751713;79;20849;-76
2021/12/27 02:57:01;;;;;;;89.87;29.37;;;;;;;-17.72;78.40;100917.59;1789037;78;20931;-76
2021/12/27 02:59:27;;;;;;;92.40;30.00;;;;;;;-17.69;78.41;100917.02;1772041;79;20899;-76
2021/12/27 03:01:53;;;;;;;99.80;32.13;;;;;;;-17.68;78.40;100913.47;1757150;81;26343;-76
2021/12/27 03:04:19;;;;;;;97.23;29.70;;;;;;;-17.66;78.36;100907.41;1754992;81;20891;-76
2021/12/27 03:06:45;;;;;;;96.13;29.77;;;;;;;-17.66;78.32;100914.46;1758919;79;20947;-76
2021/12/27 03:09:11;;;;;;;91.70;29.97;;;;;;;-17.65;78.36;100905.09;1785846;80;26240;-76
2021/12/27 03:11:37;;;;;;;90.57;29.13;;;;;;;-17.66;78.26;100911.99;1799103;77;20936;-78
2021/12/27 03:14:03;;;;;;;95.87;29.23;;;;;;;-17.64;78.33;100920.75;1778457;78;20907;-78
2021/12/27 03:16:31;;;;;;;92.57;29.07;;;;;;;-17.65;78.24;100926.09;1786974;78;24999;-76
2021/12/27 03:18:57;;;;;;;89.53;29.20;;;;;;;-17.68;78.17;100925.81;1796586;77;20913;-76
2021/12/27 03:21:24;;;;;;;97.90;29.20;;;;;;;-17.67;78.23;100923.83;1783014;77;26250;-76
2021/12/27 03:23:50;;;;;;;84.80;29.03;;;;;;;-17.66;78.26;100918.53;1785428;80;20900;-76
2021/12/27 03:26:16;;;;;;;96.10;28.90;;;;;;;-17.66;78.23;100926.81;1810713;77;20870;-76
2021/12/27 03:28:43;;;;;;;98.23;29.13;;;;;;;-17.63;78.30;100924.97;1795526;77;20908;-76
2021/12/27 03:31:10;;;;;;;85.03;26.43;;;;;;;-17.64;78.26;100921.63;1791284;78;20846;-76
2021/12/27 03:33:37;;;;;;;66.77;23.67;;;;;;;-17.63;78.21;100923.73;1777431;78;20913;-76
2021/12/27 03:36:06;;;;;;;93.70;28.20;;;;;;;-17.69;78.10;100921.60;1818109;77;20924;-76
2021/12/27 03:38:40;;;;;;;104.80;29.80;;;;;;;-17.69;78.19;100919.13;1797879;77;20960;-76
2021/12/27 03:41:12;;;;;;;92.43;27.67;;;;;;;-17.65;78.31;100912.50;1805966;77;22285;-76
2021/12/27 03:43:38;;;;;;;79.43;24.73;;;;;;;-17.64;78.29;100910.52;1806677;77;21012;-76
2021/12/27 03:46:05;;;;;;;89.23;27.83;;;;;;;-17.61;78.38;100900.94;1810822;77;21031;-76
2021/12/27 03:48:31;;;;;;;99.23;29.50;;;;;;;-17.57;78.40;100905.46;1798634;77;21630;-76
2021/12/27 03:50:57;;;;;;;97.00;31.53;;;;;;;-17.53;78.47;100902.93;1797411;77;22275;-76
2021/12/27 03:53:24;;;;;;;102.07;30.60;;;;;;;-17.48;78.46;100898.95;1803617;77;25240;-76
2021/12/27 03:55:50;;;;;;;82.70;26.63;;;;;;;-17.45;78.47;100895.91;1799157;77;21579;-76
2021/12/27 03:58:27;;;;;;;82.53;24.43;;;;;;;-17.43;78.46;100892.00;1806818;77;20928;-76
2021/12/27 04:03:22;;;;;;;88.63;26.73;;;;;;;-17.41;78.36;100890.55;1791760;78;22307;-76
2021/12/27 04:05:48;;;;;;;84.70;27.77;;;;;;;-17.36;78.42;100892.23;1840519;77;20925;-75
2021/12/27 04:08:17;;;;;;;90.30;27.40;;;;;;;-17.36;78.35;100892.23;1769836;79;21516;-75
2021/12/27 04:10:43;;;;;;;86.53;28.63;;;;;;;-17.34;78.44;100893.26;1812292;77;20900;-75
2021/12/27 04:13:10;;;;;;;92.03;26.83;;;;;;;-17.29;78.53;100899.52;1776835;79;20903;-75
2021/12/27 04:15:38;;;;;;;84.17;26.67;;;;;;;-17.30;78.37;100891.59;1825603;77;20913;-75
2021/12/27 04:18:06;;;;;;;76.13;26.03;;;;;;;-17.32;78.28;100893.05;1764342;79;20887;-76
2021/12/27 04:20:32;;;;;;;85.80;24.97;;;;;;;-17.32;78.36;100901.69;1774591;79;20929;-76
2021/12/27 04:22:58;;;;;;;76.87;24.73;;;;;;;-17.34;78.25;100897.84;1763732;79;21383;-76
2021/12/27 04:25:24;;;;;;;81.30;25.77;;;;;;;-17.37;78.21;100897.90;1798987;77;21469;-76
2021/12/27 04:27:51;;;;;;;79.00;25.07;;;;;;;-17.36;78.30;100898.41;1768416;79;26674;-76
2021/12/27 04:30:19;;;;;;;74.83;24.70;;;;;;;-17.37;78.26;100895.43;1723035;80;21460;-76
2021/12/27 04:32:54;;;;;;;88.30;26.67;;;;;;;-17.38;78.24;100893.32;1782030;79;20885;-76
2021/12/27 04:35:21;;;;;;;83.43;26.07;;;;;;;-17.40;78.23;100888.59;1743789;79;20921;-76
2021/12/27 04:37:49;;;;;;;77.63;26.60;;;;;;;-17.42;78.20;100888.44;1763600;79;20853;-76
2021/12/27 04:40:18;;;;;;;88.60;28.30;;;;;;;-17.42;78.23;100878.92;1747841;79;21303;-76
2021/12/27 04:42:49;;;;;;;93.10;30.13;;;;;;;-17.39;78.38;100874.64;1767952;78;22032;-76
2021/12/27 04:45:16;;;;;;;84.33;27.67;;;;;;;-17.31;78.53;100872.20;1760142;79;21369;-76
2021/12/27 04:47:42;;;;;;;81.00;24.03;;;;;;;-17.25;78.63;100865.73;1776929;79;20905;-76
2021/12/27 04:50:11;;;;;;;85.80;27.67;;;;;;;-17.10;78.89;100861.00;1770352;79;20909;-76
2021/12/27 04:52:37;;;;;;;94.53;27.30;;;;;;;-17.05;78.77;100858.61;1770775;79;20896;-76
2021/12/27 04:55:04;;;;;;;87.70;26.03;;;;;;;-16.93;79.00;100854.84;1762372;79;20895;-76
2021/12/27 04:57:30;;;;;;;89.77;29.03;;;;;;;-16.88;78.83;100848.73;1766611;79;20925;-76
2021/12/27 04:59:57;;;;;;;92.67;26.83;;;;;;;-16.88;78.62;100849.09;1760458;79;21382;-76
2021/12/27 05:02:23;;;;;;;85.83;26.93;;;;;;;-16.83;78.82;100844.23;1781616;79;20866;-76
2021/12/27 05:04:49;;;;;;;84.57;26.83;;;;;;;-16.75;78.90;100847.06;1771692;79;21402;-76
2021/12/27 05:07:15;;;;;;;71.90;23.47;;;;;;;-16.72;78.76;100851.06;1748117;79;20934;-76
2021/12/27 05:09:41;;;;;;;85.50;24.87;;;;;;;-16.68;78.83;100854.34;1758453;79;21735;-76
2021/12/27 05:12:08;;;;;;;65.13;22.93;;;;;;;-16.62;78.83;100856.45;1739849;79;26290;-76
2021/12/27 05:14:34;;;;;;;73.63;23.50;;;;;;;-16.59;78.85;100857.61;1754574;79;21405;-75
2021/12/27 05:17:00;;;;;;;67.10;23.20;;;;;;;-16.45;79.30;100847.41;1768273;79;20865;-75
2021/12/27 05:19:26;;;;;;;84.30;23.83;;;;;;;-16.24;79.59;100850.14;1784581;79;25070;-75
2021/12/27 05:21:52;;;;;;;81.83;22.70;;;;;;;-16.12;79.52;100847.20;1809123;77;28028;-75
2021/12/27 05:24:19;;;;;;;62.87;21.80;;;;;;;-16.01;79.45;100846.04;1803299;77;26861;-76
2021/12/27 05:26:45;;;;;;;75.63;23.83;;;;;;;-15.94;79.38;100840.92;1811500;77;21381;-76
2021/12/27 05:29:11;;;;;;;72.57;22.83;;;;;;;-15.88;79.36;100831.58;1802616;77;21294;-76
2021/12/27 05:31:37;;;;;;;79.17;23.97;;;;;;;-15.76;79.52;100835.16;1781550;77;24979;-76
2021/12/27 05:34:04;;;;;;;102.00;29.93;;;;;;;-15.64;79.54;100849.03;1788289;77;22237;-76
2021/12/27 05:36:30;;;;;;;82.17;25.60;;;;;;;-15.62;79.23;100855.00;1796657;77;21535;-76
2021/12/27 05:38:56;;;;;;;84.00;27.23;;;;;;;-15.64;79.13;100848.66;1800688;77;21658;-76
2021/12/27 05:41:22;;;;;;;85.27;25.33;;;;;;;-15.60;79.30;100853.53;1805255;77;20952;-76
2021/12/27 05:43:48;;;;;;;87.67;24.60;;;;;;;-15.49;79.74;100840.06;1770821;79;25162;-76
2021/12/27 05:46:14;;;;;;;83.43;27.07;;;;;;;-15.27;79.91;100844.47;1807129;77;28672;-76
2021/12/27 05:48:40;;;;;;;82.40;26.33;;;;;;;-15.14;79.94;100844.45;1797219;78;20932;-76
2021/12/27 05:51:06;;;;;;;85.97;26.37;;;;;;;-15.02;79.88;100842.16;1803811;77;21337;-76
2021/12/27 05:53:32;;;;;;;77.37;23.47;;;;;;;-14.96;79.73;100843.94;1804834;77;26548;-76
2021/12/27 05:55:59;;;;;;;85.97;24.83;;;;;;;-14.91;79.71;100843.97;1800531;77;21337;-76
2021/12/27 05:58:25;;;;;;;85.67;24.77;;;;;;;-14.84;79.72;100842.90;1807140;77;28006;-76
2021/12/27 06:00:52;;;;;;;80.50;25.87;;;;;;;-14.79;79.70;100847.52;1723795;80;21786;-76
2021/12/27 06:03:18;;;;;;;84.87;28.37;;;;;;;-14.68;79.90;100842.25;1771232;79;21860;-76
2021/12/27 06:05:46;;;;;;;78.37;26.23;;;;;;;-14.58;79.97;100838.59;1737513;79;21735;-76
2021/12/27 06:08:12;;;;;;;88.60;28.90;;;;;;;-14.45;80.10;100831.42;1765195;79;21968;-76
2021/12/27 06:10:38;;;;;;;77.57;25.60;;;;;;;-14.31;80.20;100826.36;1766208;79;21771;-76
2021/12/27 06:13:04;;;;;;;84.87;25.70;;;;;;;-14.17;80.22;100831.27;1768748;79;20940;-76
2021/12/27 06:15:30;;;;;;;72.63;24.13;;;;;;;-14.07;80.20;100832.54;1759935;80;21457;-75
2021/12/27 06:17:56;;;;;;;85.03;26.03;;;;;;;-13.99;80.18;100824.45;1765619;79;21893;-76
2021/12/27 06:20:23;;;;;;;74.27;26.00;;;;;;;-13.92;80.13;100821.38;1778744;79;24978;-76
2021/12/27 06:22:53;;;;;;;68.23;22.70;;;;;;;-13.85;80.04;100826.11;1754749;79;20928;-76
2021/12/27 06:25:19;;;;;;;68.17;23.07;;;;;;;-13.79;80.10;100829.11;1761435;79;21421;-76
2021/12/27 06:27:45;;;;;;;64.90;21.00;;;;;;;-13.75;80.02;100830.23;1774244;79;21533;-76
2021/12/27 06:30:13;;;;;;;58.77;20.33;;;;;;;-13.74;79.96;100830.36;1761903;80;21726;-76
2021/12/27 06:32:40;;;;;;;60.20;21.30;;;;;;;-13.68;80.05;100832.86;1765579;79;21419;-76
2021/12/27 06:35:08;;;;;;;68.53;23.23;;;;;;;-13.59;80.24;100835.73;1745645;80;21350;-76
2021/12/27 06:37:35;;;;;;;62.70;21.37;;;;;;;-13.53;80.24;100833.75;1760723;80;21454;-76
2021/12/27 06:40:01;;;;;;;56.27;20.07;;;;;;;-13.40;80.39;100838.95;1779713;80;21491;-76
2021/12/27 06:42:27;;;;;;;54.93;19.57;;;;;;;-13.28;80.50;100831.62;1764855;78;21515;-76
2021/12/27 06:44:53;;;;;;;68.43;23.53;;;;;;;-13.18;80.42;100834.48;1764942;80;21776;-76
2021/12/27 06:47:19;;;;;;;70.80;22.60;;;;;;;-13.10;80.46;100830.59;1776761;80;21819;-76
2021/12/27 06:49:47;;;;;;;87.80;27.77;;;;;;;-13.02;80.45;100833.70;1775491;78;20917;-75
2021/12/27 06:52:13;;;;;;;72.97;24.23;;;;;;;-12.94;80.44;100830.55;1769781;80;21821;-75
2021/12/27 06:54:41;;;;;;;70.23;23.43;;;;;;;-12.85;80.52;100830.05;1748539;78;21545;-75
2021/12/27 06:57:08;;;;;;;91.70;27.37;;;;;;;-12.78;80.49;100826.05;1769890;78;20933;-77
2021/12/27 06:59:34;;;;;;;102.70;32.47;;;;;;;-12.65;80.62;100822.91;1767588;78;20909;-76
2021/12/27 07:02:00;;;;;;;71.77;24.70;;;;;;;-12.58;80.56;100818.91;1770181;78;20866;-76
2021/12/27 07:04:26;;;;;;;64.93;21.60;;;;;;;-12.54;80.48;100814.29;1771662;78;20874;-76
2021/12/27 07:06:53;;;;;;;59.53;22.23;;;;;;;-12.44;80.63;100815.84;1766250;80;20862;-76
2021/12/27 07:09:19;;;;;;;67.23;22.87;;;;;;;-12.34;80.64;100816.19;1776120;78;21465;-76
2021/12/27 07:11:45;;;;;;;62.40;20.77;;;;;;;-12.26;80.62;100810.17;1766270;80;21384;-76
2021/12/27 07:14:11;;;;;;;66.90;21.07;;;;;;;-12.15;80.68;100815.61;1779075;80;21045;-76
2021/12/27 07:16:38;;;;;;;54.80;19.03;;;;;;;-12.08;80.64;100813.70;1771288;78;20905;-76
2021/12/27 07:19:03;;;;;;;;;;;;;;;-12.02;80.59;100819.91;1763195;78;20945;-76
2021/12/27 07:21:30;;;;;;;109.97;40.40;;;;;;;-11.98;80.59;100820.27;1771435;78;26188;-76
2021/12/27 07:23:56;;;;;;;101.93;35.57;;;;;;;-11.92;80.55;100828.55;1764414;80;20937;-76
2021/12/27 07:26:22;;;;;;;76.13;27.10;;;;;;;-11.88;80.61;100831.39;1775828;80;20914;-76
2021/12/27 07:28:48;;;;;;;66.23;23.70;;;;;;;-11.81;80.63;100837.34;1763516;80;21010;-76
2021/12/27 07:31:15;;;;;;;62.33;22.13;;;;;;;-11.76;80.66;100839.77;1797346;77;26948;-76
2021/12/27 07:33:40;;;;;;;;;;;;;;;-11.68;80.71;100839.11;1798239;77;21039;-76
2021/12/27 07:36:10;;;;;;;64.87;20.37;;;;;;;-11.60;80.73;100842.17;1791663;77;29533;-76
2021/12/27 07:38:37;;;;;;;56.93;18.73;;;;;;;-11.53;80.72;100840.26;1796621;77;20916;-77
2021/12/27 07:41:04;;;;;;;58.43;19.27;;;;;;;-11.46;80.75;100841.59;1792072;77;20865;-76
2021/12/27 07:43:30;;;;;;;63.97;22.43;;;;;;;-11.41;80.75;100839.89;1797025;77;20896;-76
2021/12/27 07:45:57;;;;;;;54.97;18.30;;;;;;;-11.35;80.73;100846.97;1805934;77;20932;-76
2021/12/27 07:48:23;;;;;;;69.73;19.53;;;;;;;-11.28;80.81;100842.92;1787447;77;20910;-76
2021/12/27 07:50:49;;;;;;;57.77;19.80;;;;;;;-11.19;80.83;100846.48;1801279;77;20881;-76
2021/12/27 07:53:16;;;;;;;65.50;20.30;;;;;;;-11.12;80.80;100849.54;1799626;77;20834;-76
2021/12/27 07:55:42;;;;;;;74.87;25.30;;;;;;;-11.06;80.79;100844.13;1798935;77;21382;-76
2021/12/27 07:58:08;;;;;;;56.63;19.20;;;;;;;-11.01;80.76;100845.70;1793423;77;20858;-76
2021/12/27 08:00:35;;;;;;;61.83;20.20;;;;;;;-10.98;80.77;100843.05;1797456;77;20925;-76
2021/12/27 08:03:02;;;;;;;54.47;19.87;;;;;;;-10.90;80.86;100841.95;1794812;77;20901;-76
2021/12/27 08:05:28;;;;;;;48.27;18.17;;;;;;;-10.81;80.94;100846.36;1793417;77;20897;-76
2021/12/27 08:07:54;;;;;;;;;;;;;;;-10.72;80.97;100844.91;1804457;77;20878;-76
2021/12/27 08:10:20;;;;;;;50.60;17.37;;;;;;;-10.59;81.06;100831.67;1792726;76;20175;-76
2021/12/27 08:12:46;;;;;;;61.18;18.35;;;;;;;-10.51;81.02;100830.20;1795106;77;21407;-76
2021/12/27 08:15:13;;;;;;;45.47;17.47;;;;;;;-10.43;81.04;100828.25;1793873;77;20901;-76
2021/12/27 08:17:40;;;;;;;48.53;18.67;;;;;;;-10.36;81.06;100828.75;1797214;77;20932;-76
2021/12/27 08:20:08;;;;;;;45.73;17.50;;;;;;;-10.30;81.04;100826.20;1793172;77;20909;-75
2021/12/27 08:22:35;;;;;;;47.00;18.03;;;;;;;-10.22;81.08;100831.35;1790424;77;20873;-75
2021/12/27 08:25:01;;;;;;;40.52;16.60;;;;;;;-10.16;81.10;100825.11;1793032;77;20916;-75
2021/12/27 08:27:29;;;;;;;42.50;16.15;;;;;;;-10.11;81.08;100818.80;1724204;80;20929;-75
2021/12/27 08:29:55;;;;;;;43.07;18.53;;;;;;;-10.07;81.07;100824.88;1725889;81;20904;-74
2021/12/27 08:32:21;;;;;;;;;;;;;;;-10.01;81.12;100820.30;1757479;80;20911;-75
2021/12/27 08:34:47;;;;;;;46.77;17.70;;;;;;;-9.94;81.13;100812.84;1756798;80;20125;-74
2021/12/27 08:37:13;;;;;;;40.10;17.65;;;;;;;-9.90;81.17;100824.41;1746592;80;20881;-74
2021/12/27 08:39:40;;;;;;;51.02;17.50;;;;;;;-9.86;81.16;100820.45;1747000;81;20898;-74
2021/12/27 08:42:07;;;;;;;45.28;17.10;;;;;;;-9.83;81.19;100825.28;1773611;79;20890;-74
2021/12/27 08:44:35;;;;;;;43.63;16.00;;;;;;;-9.77;81.22;100828.59;1755643;79;20903;-75
2021/12/27 08:47:01;;;;;;;45.57;17.57;;;;;;;-9.72;81.24;100831.02;1780250;79;21393;-75
2021/12/27 08:49:27;;;;;;;40.98;15.58;;;;;;;-9.68;81.26;100827.95;1775352;79;20899;-72
2021/12/27 08:51:53;;;;;;;;;;;;;;;-9.63;81.26;100825.38;1788745;79;21589;-73
2021/12/27 08:54:19;;;;;;;;;;;;;;;-9.57;81.28;100817.42;1790602;79;20112;-74
2021/12/27 08:56:46;;;;;;;47.40;16.97;;;;;;;-9.53;81.27;100813.98;1791350;79;20098;-74
2021/12/27 08:59:11;;;;;;;;;;;;;;;-9.47;81.30;100807.26;1792672;79;21670;-74
2021/12/27 09:01:38;;;;;;;52.50;17.97;;;;;;;-9.44;81.30;100808.33;1785193;79;27454;-73
2021/12/27 09:04:04;;;;;;;48.65;18.00;;;;;;;-9.39;81.34;100814.52;1787897;79;20925;-74
2021/12/27 09:06:33;;;;;;;42.58;17.32;;;;;;;-9.37;81.35;100804.59;1788934;79;20942;-73
2021/12/27 09:09:00;;;;;;;48.02;17.55;;;;;;;-9.32;81.41;100804.87;1712698;82;20919;-73
2021/12/27 09:11:27;;;;;;;47.75;17.23;;;;;;;-9.27;81.41;100807.29;1782092;79;20935;-73
2021/12/27 09:13:53;;;;;;;55.12;20.90;;;;;;;-9.23;81.43;100805.09;1778597;79;20934;-73
2021/12/27 09:16:19;;;;;;;48.48;17.85;;;;;;;-9.17;81.46;100808.38;1775304;79;20900;-73
2021/12/27 09:18:45;;;;;;;52.80;19.87;;;;;;;-9.11;81.48;100805.89;1754032;79;20846;-73
2021/12/27 09:21:11;;;;;;;39.67;16.90;;;;;;;-9.05;81.53;100801.28;1792463;79;21722;-74
2021/12/27 09:23:37;;;;;;;;;;;;;;;-8.98;81.56;100792.91;1781686;79;20879;-74
2021/12/27 09:26:03;;;;;;;;;;;;;;;-8.90;81.57;100795.14;1763137;79;20222;-74
2021/12/27 09:28:30;;;;;;;50.73;17.25;;;;;;;-8.82;81.58;100793.09;1793627;79;20113;-74
2021/12/27 09:30:57;;;;;;;52.15;17.23;;;;;;;-8.76;81.57;100793.48;1798465;77;20936;-74
2021/12/27 09:33:23;;;;;;;50.98;18.82;;;;;;;-8.70;81.62;100791.37;1732675;79;20888;-74
2021/12/27 09:35:50;;;;;;;44.18;17.23;;;;;;;-8.63;81.64;100790.98;1770694;80;20914;-74
2021/12/27 09:38:16;;;;;;;54.63;18.80;;;;;;;-8.56;81.65;100793.11;1741413;81;20937;-74
2021/12/27 09:40:43;;;;;;;54.70;17.90;;;;;;;-8.48;81.69;100791.08;1735813;81;20933;-74
2021/12/27 09:43:10;;;;;;;46.05;16.95;;;;;;;-8.41;81.69;100779.41;1803004;77;20910;-74
2021/12/27 09:45:36;;;;;;;53.28;19.55;;;;;;;-8.34;81.67;100775.64;1811386;77;21134;-74
2021/12/27 09:48:04;;;;;;;68.22;22.62;;;;;;;-8.29;81.65;100770.06;1795206;77;21036;-75
2021/12/27 09:50:47;;;;;;;62.60;23.65;;;;;;;-8.23;81.66;100765.42;1816923;77;21686;-77
2021/12/27 09:53:14;;;;;;;69.53;20.37;;;;;;;-8.16;81.67;100762.52;1820555;77;20940;-77
2021/12/27 09:55:40;;;;;;;53.20;20.72;;;;;;;-8.11;81.65;100759.90;1800938;77;20889;-77
2021/12/27 09:58:09;;;;;;;47.78;19.45;;;;;;;-8.05;81.71;100756.51;1772020;79;20938;-76
2021/12/27 10:00:36;;;;;;;57.70;21.23;;;;;;;-7.99;81.71;100752.64;1760861;79;20910;-76
2021/12/27 10:03:02;;;;;;;60.58;21.10;;;;;;;-7.93;81.70;100759.27;1757086;79;20862;-76
2021/12/27 10:05:29;;;;;;;;;;;;;;;-7.87;81.75;100763.02;1770687;78;20924;-76
2021/12/27 10:07:56;;;;;;;45.28;16.55;;;;;;;-7.78;81.76;100762.66;1756291;78;20092;-76
2021/12/27 10:10:23;;;;;;;49.55;18.48;;;;;;;-7.73;81.74;100748.75;1755259;79;20941;-77
2021/12/27 10:12:49;;;;;;;45.83;18.12;;;;;;;-7.67;81.76;100747.85;1753494;79;20941;-77
2021/12/27 10:15:18;;;;;;;;;;;;;;;-7.61;81.76;100738.17;1769145;79;20909;-76
2021/12/27 10:17:46;;;;;;;44.80;17.77;;;;;;;-7.56;81.77;100739.69;1760424;79;20102;-76
2021/12/27 10:20:22;;;;;;;57.95;20.97;;;;;;;-7.51;81.79;100732.03;1750522;79;20913;-76
2021/12/27 10:22:53;;;;;;;51.68;19.23;;;;;;;-7.46;81.80;100735.29;1781321;77;20913;-76
2021/12/27 10:25:26;;;;;;;65.52;21.87;;;;;;;-7.40;81.80;100730.62;1796531;77;20921;-76
2021/12/27 10:27:56;;;;;;;70.92;24.23;;;;;;;-7.33;81.82;100727.20;1805852;78;20900;-77
2021/12/27 10:30:25;;;;;;;68.33;25.27;;;;;;;-7.29;81.80;100727.46;1793142;77;20897;-77
2021/12/27 10:33:14;;;;;;;55.45;23.02;;;;;;;-7.24;81.81;100723.53;1760755;80;20910;-77
2021/12/27 10:35:43;;;;;;;57.67;21.80;;;;;;;-7.21;81.77;100709.89;1775960;79;21433;-76
2021/12/27 10:38:24;;;;;;;59.45;20.75;;;;;;;-7.16;81.82;100701.36;1784233;78;21000;-77
2021/12/27 10:40:56;;;;;;;59.08;21.68;;;;;;;-7.08;81.89;100703.52;1763274;80;21906;-77
2021/12/27 10:43:42;;;;;;;53.17;20.85;;;;;;;-6.99;81.87;100701.91;1786526;79;20870;-77
2021/12/27 10:46:25;;;;;;;44.48;18.80;;;;;;;-6.93;81.83;100701.37;1785503;78;20893;-77
2021/12/27 10:48:57;;;;;;;48.08;18.30;;;;;;;-6.89;81.81;100697.86;1781402;79;20984;-77
2021/12/27 10:51:24;;;;;;;49.98;18.80;;;;;;;-6.83;81.84;100696.94;1789737;79;21846;-77
2021/12/27 10:53:55;;;;;;;60.38;21.70;;;;;;;-6.78;81.84;100695.94;1771800;79;20907;-77
2021/12/27 10:56:25;;;;;;;48.80;18.82;;;;;;;-6.73;81.89;100691.59;1784289;78;20890;-77
2021/12/27 10:58:55;;;;;;;47.17;18.02;;;;;;;-6.67;81.81;100682.27;1771132;79;21369;-77
2021/12/27 11:01:26;;;;;;;51.20;19.50;;;;;;;-6.62;81.82;100672.06;1784677;79;20909;-77
2021/12/27 11:03:57;;;;;;;64.50;23.85;;;;;;;-6.57;81.81;100671.05;1746393;80;20895;-77
2021/12/27 11:06:27;;;;;;;61.73;23.92;;;;;;;-6.55;81.81;100666.96;1778693;78;20881;-77
2021/12/27 11:08:54;;;;;;;43.55;18.67;;;;;;;-6.48;81.81;100662.73;1684731;79;29587;-77